sensor_id;sensor_type;location;lat;lon;timestamp;P1;durP1;ratioP1;P2;durP2;ratioP2
5555;SDS011;2801;50.972;7.856;2024-02-04T00:01:03;35.58;;;14.30;;
5555;SDS011;2801;50.972;7.856;2024-02-04T00:03:30;37.83;;;14.48;;
5555;SDS011;2801;50.972;7.856;2024-02-04T00:06:01;36.17;;;14.90;;
5555;SDS011;2801;50.972;7.856;2024-02-04T00:08:28;36.80;;;14.63;;
5555;SDS011;2801;50.972;7.856;2024-02-04T00:10:55;37.60;;;14.27;;
5555;SDS011;2801;50.972;7.856;2024-02-04T00:13:22;36.25;;;13.98;;
5555;SDS011;2801;50.972;7.856;2024-02-04T00:15:49;34.67;;;14.75;;
5555;SDS011;2801;50.972;7.856;2024-02-04T00:18:18;35.05;;;14.18;;
5555;SDS011;2801;50.972;7.856;2024-02-04T00:20:46;27.45;;;12.95;;
5555;SDS011;2801;50.972;7.856;2024-02-04T00:23:13;28.25;;;11.88;;
5555;SDS011;2801;50.972;7.856;2024-02-04T00:25:40;32.03;;;12.48;;
5555;SDS011;2801;50.972;7.856;2024-02-04T00:28:08;32.45;;;11.98;;
5555;SDS011;2801;50.972;7.856;2024-02-04T00:30:38;26.27;;;11.15;;
5555;SDS011;2801;50.972;7.856;2024-02-04T00:33:05;22.83;;;10.77;;
5555;SDS011;2801;50.972;7.856;2024-02-04T00:35:32;23.15;;;10.98;;
5555;SDS011;2801;50.972;7.856;2024-02-04T00:37:59;28.42;;;10.77;;
5555;SDS011;2801;50.972;7.856;2024-02-04T00:40:29;22.35;;;9.77;;
5555;SDS011;2801;50.972;7.856;2024-02-04T00:42:56;19.08;;;9.43;;
5555;SDS011;2801;50.972;7.856;2024-02-04T00:45:23;23.60;;;8.63;;
5555;SDS011;2801;50.972;7.856;2024-02-04T00:47:50;20.17;;;8.57;;
5555;SDS011;2801;50.972;7.856;2024-02-04T00:50:17;15.13;;;7.72;;
5555;SDS011;2801;50.972;7.856;2024-02-04T00:52:45;17.63;;;8.52;;
5555;SDS011;2801;50.972;7.856;2024-02-04T00:55:12;17.10;;;8.55;;
5555;SDS011;2801;50.972;7.856;2024-02-04T00:57:39;15.77;;;7.45;;
5555;SDS011;2801;50.972;7.856;2024-02-04T01:00:06;16.73;;;7.60;;
5555;SDS011;2801;50.972;7.856;2024-02-04T01:02:34;15.07;;;7.20;;
5555;SDS011;2801;50.972;7.856;2024-02-04T01:05:01;16.48;;;7.68;;
5555;SDS011;2801;50.972;7.856;2024-02-04T01:07:28;11.55;;;6.25;;
5555;SDS011;2801;50.972;7.856;2024-02-04T01:09:55;11.45;;;6.72;;
5555;SDS011;2801;50.972;7.856;2024-02-04T01:12:23;13.88;;;6.43;;
5555;SDS011;2801;50.972;7.856;2024-02-04T01:14:50;10.32;;;5.95;;
5555;SDS011;2801;50.972;7.856;2024-02-04T01:17:17;10.93;;;6.03;;
5555;SDS011;2801;50.972;7.856;2024-02-04T01:19:44;10.68;;;5.57;;
5555;SDS011;2801;50.972;7.856;2024-02-04T01:22:11;8.95;;;4.72;;
5555;SDS011;2801;50.972;7.856;2024-02-04T01:24:39;8.93;;;4.90;;
5555;SDS011;2801;50.972;7.856;2024-02-04T01:27:06;6.95;;;4.22;;
5555;SDS011;2801;50.972;7.856;2024-02-04T01:29:34;8.98;;;4.25;;
5555;SDS011;2801;50.972;7.856;2024-02-04T01:32:01;6.10;;;3.72;;
5555;SDS011;2801;50.972;7.856;2024-02-04T01:34:28;5.43;;;3.17;;
5555;SDS011;2801;50.972;7.856;2024-02-04T01:36:55;4.47;;;2.88;;
5555;SDS011;2801;50.972;7.856;2024-02-04T01:39:22;6.32;;;3.58;;
5555;SDS011;2801;50.972;7.856;2024-02-04T01:41:49;4.13;;;2.97;;
5555;SDS011;2801;50.972;7.856;2024-02-04T01:44:17;8.38;;;2.92;;
5555;SDS011;2801;50.972;7.856;2024-02-04T01:46:45;4.82;;;2.60;;
5555;SDS011;2801;50.972;7.856;2024-02-04T01:49:12;4.10;;;2.45;;
5555;SDS011;2801;50.972;7.856;2024-02-04T01:51:39;3.58;;;2.10;;
5555;SDS011;2801;50.972;7.856;2024-02-04T01:54:06;3.90;;;1.70;;
5555;SDS011;2801;50.972;7.856;2024-02-04T01:56:34;3.45;;;1.85;;
5555;SDS011;2801;50.972;7.856;2024-02-04T01:59:02;4.00;;;1.58;;
5555;SDS011;2801;50.972;7.856;2024-02-04T02:01:30;1.70;;;1.10;;
5555;SDS011;2801;50.972;7.856;2024-02-04T02:03:58;1.60;;;1.13;;
5555;SDS011;2801;50.972;7.856;2024-02-04T02:06:28;2.17;;;0.98;;
5555;SDS011;2801;50.972;7.856;2024-02-04T02:08:55;0.77;;;0.70;;
5555;SDS011;2801;50.972;7.856;2024-02-04T02:11:52;0.68;;;0.60;;
5555;SDS011;2801;50.972;7.856;2024-02-04T02:14:23;0.93;;;0.40;;
5555;SDS011;2801;50.972;7.856;2024-02-04T02:16:57;0.60;;;0.60;;
5555;SDS011;2801;50.972;7.856;2024-02-04T02:25:14;0.50;;;0.50;;
5555;SDS011;2801;50.972;7.856;2024-02-04T02:27:47;0.60;;;0.60;;
5555;SDS011;2801;50.972;7.856;2024-02-04T02:30:17;0.40;;;0.40;;
5555;SDS011;2801;50.972;7.856;2024-02-04T02:32:45;0.40;;;0.40;;
5555;SDS011;2801;50.972;7.856;2024-02-04T02:35:15;0.47;;;0.35;;
5555;SDS011;2801;50.972;7.856;2024-02-04T02:37:44;0.30;;;0.30;;
5555;SDS011;2801;50.972;7.856;2024-02-04T02:40:24;0.80;;;0.50;;
5555;SDS011;2801;50.972;7.856;2024-02-04T02:43:02;0.47;;;0.47;;
5555;SDS011;2801;50.972;7.856;2024-02-04T02:45:30;0.40;;;0.40;;
5555;SDS011;2801;50.972;7.856;2024-02-04T02:47:58;0.68;;;0.50;;
5555;SDS011;2801;50.972;7.856;2024-02-04T02:50:27;0.52;;;0.40;;
5555;SDS011;2801;50.972;7.856;2024-02-04T02:52:54;0.32;;;0.32;;
5555;SDS011;2801;50.972;7.856;2024-02-04T02:55:21;0.35;;;0.35;;
5555;SDS011;2801;50.972;7.856;2024-02-04T02:57:48;0.57;;;0.40;;
5555;SDS011;2801;50.972;7.856;2024-02-04T03:00:15;0.50;;;0.45;;
5555;SDS011;2801;50.972;7.856;2024-02-04T03:02:43;0.40;;;0.40;;
5555;SDS011;2801;50.972;7.856;2024-02-04T03:05:10;0.47;;;0.43;;
5555;SDS011;2801;50.972;7.856;2024-02-04T03:07:39;0.40;;;0.40;;
5555;SDS011;2801;50.972;7.856;2024-02-04T03:10:06;0.55;;;0.50;;
5555;SDS011;2801;50.972;7.856;2024-02-04T03:12:33;0.90;;;0.65;;
5555;SDS011;2801;50.972;7.856;2024-02-04T03:15:00;0.57;;;0.57;;
5555;SDS011;2801;50.972;7.856;2024-02-04T03:17:27;0.57;;;0.50;;
5555;SDS011;2801;50.972;7.856;2024-02-04T03:19:54;0.50;;;0.47;;
5555;SDS011;2801;50.972;7.856;2024-02-04T03:22:21;1.58;;;0.73;;
5555;SDS011;2801;50.972;7.856;2024-02-04T03:24:48;0.82;;;0.50;;
5555;SDS011;2801;50.972;7.856;2024-02-04T03:27:17;0.70;;;0.60;;
5555;SDS011;2801;50.972;7.856;2024-02-04T03:29:44;0.50;;;0.50;;
5555;SDS011;2801;50.972;7.856;2024-02-04T03:32:11;0.77;;;0.60;;
5555;SDS011;2801;50.972;7.856;2024-02-04T03:34:41;0.77;;;0.60;;
5555;SDS011;2801;50.972;7.856;2024-02-04T03:37:08;0.95;;;0.60;;
5555;SDS011;2801;50.972;7.856;2024-02-04T03:39:36;1.15;;;0.63;;
5555;SDS011;2801;50.972;7.856;2024-02-04T03:42:03;2.03;;;0.75;;
5555;SDS011;2801;50.972;7.856;2024-02-04T03:44:31;0.52;;;0.50;;
5555;SDS011;2801;50.972;7.856;2024-02-04T03:46:57;1.23;;;0.60;;
5555;SDS011;2801;50.972;7.856;2024-02-04T03:49:24;1.45;;;0.73;;
5555;SDS011;2801;50.972;7.856;2024-02-04T03:51:52;0.90;;;0.60;;
5555;SDS011;2801;50.972;7.856;2024-02-04T03:54:19;0.85;;;0.68;;
5555;SDS011;2801;50.972;7.856;2024-02-04T03:56:46;1.05;;;0.73;;
5555;SDS011;2801;50.972;7.856;2024-02-04T03:59:13;0.90;;;0.70;;
5555;SDS011;2801;50.972;7.856;2024-02-04T04:01:40;1.17;;;0.75;;
5555;SDS011;2801;50.972;7.856;2024-02-04T04:04:12;2.13;;;0.60;;
5555;SDS011;2801;50.972;7.856;2024-02-04T04:06:39;1.55;;;0.80;;
5555;SDS011;2801;50.972;7.856;2024-02-04T04:09:07;0.95;;;0.77;;
5555;SDS011;2801;50.972;7.856;2024-02-04T04:11:35;1.88;;;0.90;;
5555;SDS011;2801;50.972;7.856;2024-02-04T04:14:01;2.42;;;1.10;;
5555;SDS011;2801;50.972;7.856;2024-02-04T04:16:29;1.77;;;1.02;;
5555;SDS011;2801;50.972;7.856;2024-02-04T04:18:56;1.92;;;1.10;;
5555;SDS011;2801;50.972;7.856;2024-02-04T04:21:25;1.08;;;0.73;;
5555;SDS011;2801;50.972;7.856;2024-02-04T04:23:53;1.92;;;1.00;;
5555;SDS011;2801;50.972;7.856;2024-02-04T04:26:20;2.30;;;1.10;;
5555;SDS011;2801;50.972;7.856;2024-02-04T04:28:47;2.65;;;0.98;;
5555;SDS011;2801;50.972;7.856;2024-02-04T04:31:14;1.55;;;0.90;;
5555;SDS011;2801;50.972;7.856;2024-02-04T04:33:41;1.40;;;0.90;;
5555;SDS011;2801;50.972;7.856;2024-02-04T04:36:10;3.10;;;1.20;;
5555;SDS011;2801;50.972;7.856;2024-02-04T04:38:37;2.10;;;1.23;;
5555;SDS011;2801;50.972;7.856;2024-02-04T04:41:03;2.97;;;1.40;;
5555;SDS011;2801;50.972;7.856;2024-02-04T04:43:31;2.85;;;1.25;;
5555;SDS011;2801;50.972;7.856;2024-02-04T04:46:00;3.05;;;1.65;;
5555;SDS011;2801;50.972;7.856;2024-02-04T04:48:27;3.15;;;1.27;;
5555;SDS011;2801;50.972;7.856;2024-02-04T04:50:54;3.88;;;1.75;;
5555;SDS011;2801;50.972;7.856;2024-02-04T04:53:22;5.20;;;2.10;;
5555;SDS011;2801;50.972;7.856;2024-02-04T04:55:48;7.68;;;2.85;;
5555;SDS011;2801;50.972;7.856;2024-02-04T04:58:15;10.88;;;3.90;;
5555;SDS011;2801;50.972;7.856;2024-02-04T05:00:42;11.70;;;4.35;;
5555;SDS011;2801;50.972;7.856;2024-02-04T05:03:09;16.83;;;5.78;;
5555;SDS011;2801;50.972;7.856;2024-02-04T05:05:36;23.33;;;7.18;;
5555;SDS011;2801;50.972;7.856;2024-02-04T05:08:04;18.60;;;6.75;;
5555;SDS011;2801;50.972;7.856;2024-02-04T05:10:31;16.83;;;7.22;;
5555;SDS011;2801;50.972;7.856;2024-02-04T05:12:58;23.13;;;8.50;;
5555;SDS011;2801;50.972;7.856;2024-02-04T05:15:24;25.33;;;9.48;;
5555;SDS011;2801;50.972;7.856;2024-02-04T05:17:52;20.70;;;8.65;;
5555;SDS011;2801;50.972;7.856;2024-02-04T05:20:19;21.45;;;7.93;;
5555;SDS011;2801;50.972;7.856;2024-02-04T05:22:46;22.13;;;8.93;;
5555;SDS011;2801;50.972;7.856;2024-02-04T05:25:13;24.85;;;9.35;;
5555;SDS011;2801;50.972;7.856;2024-02-04T05:27:40;21.92;;;8.82;;
5555;SDS011;2801;50.972;7.856;2024-02-04T05:30:08;23.83;;;10.32;;
5555;SDS011;2801;50.972;7.856;2024-02-04T05:32:35;19.58;;;9.23;;
5555;SDS011;2801;50.972;7.856;2024-02-04T05:35:03;24.35;;;9.80;;
5555;SDS011;2801;50.972;7.856;2024-02-04T05:37:30;23.65;;;9.73;;
5555;SDS011;2801;50.972;7.856;2024-02-04T05:39:58;23.50;;;10.73;;
5555;SDS011;2801;50.972;7.856;2024-02-04T05:42:25;22.88;;;10.10;;
5555;SDS011;2801;50.972;7.856;2024-02-04T05:44:52;17.60;;;8.82;;
5555;SDS011;2801;50.972;7.856;2024-02-04T05:47:19;19.35;;;9.63;;
5555;SDS011;2801;50.972;7.856;2024-02-04T05:49:46;24.42;;;9.45;;
5555;SDS011;2801;50.972;7.856;2024-02-04T05:52:14;20.05;;;9.43;;
5555;SDS011;2801;50.972;7.856;2024-02-04T05:54:41;17.77;;;9.07;;
5555;SDS011;2801;50.972;7.856;2024-02-04T05:57:08;15.77;;;7.75;;
5555;SDS011;2801;50.972;7.856;2024-02-04T05:59:37;18.92;;;8.82;;
5555;SDS011;2801;50.972;7.856;2024-02-04T06:02:05;18.13;;;8.48;;
5555;SDS011;2801;50.972;7.856;2024-02-04T06:04:33;17.48;;;7.97;;
5555;SDS011;2801;50.972;7.856;2024-02-04T06:07:01;21.17;;;9.23;;
5555;SDS011;2801;50.972;7.856;2024-02-04T06:09:28;20.27;;;9.93;;
5555;SDS011;2801;50.972;7.856;2024-02-04T06:11:55;16.77;;;8.32;;
5555;SDS011;2801;50.972;7.856;2024-02-04T06:14:22;18.13;;;8.48;;
5555;SDS011;2801;50.972;7.856;2024-02-04T06:16:50;18.33;;;8.95;;
5555;SDS011;2801;50.972;7.856;2024-02-04T06:19:17;15.57;;;7.95;;
5555;SDS011;2801;50.972;7.856;2024-02-04T06:21:44;17.70;;;8.88;;
5555;SDS011;2801;50.972;7.856;2024-02-04T06:24:11;19.10;;;9.30;;
5555;SDS011;2801;50.972;7.856;2024-02-04T06:26:38;19.05;;;8.65;;
5555;SDS011;2801;50.972;7.856;2024-02-04T06:29:06;17.25;;;8.80;;
5555;SDS011;2801;50.972;7.856;2024-02-04T06:31:33;19.98;;;9.10;;
5555;SDS011;2801;50.972;7.856;2024-02-04T06:34:00;16.60;;;8.13;;
5555;SDS011;2801;50.972;7.856;2024-02-04T06:36:27;19.38;;;9.23;;
5555;SDS011;2801;50.972;7.856;2024-02-04T06:38:54;19.85;;;9.68;;
5555;SDS011;2801;50.972;7.856;2024-02-04T06:41:22;18.60;;;9.57;;
5555;SDS011;2801;50.972;7.856;2024-02-04T06:43:49;19.60;;;9.93;;
5555;SDS011;2801;50.972;7.856;2024-02-04T06:46:28;17.90;;;8.57;;
5555;SDS011;2801;50.972;7.856;2024-02-04T06:48:55;17.30;;;8.88;;
5555;SDS011;2801;50.972;7.856;2024-02-04T06:51:23;20.10;;;10.10;;
5555;SDS011;2801;50.972;7.856;2024-02-04T06:53:50;20.80;;;9.63;;
5555;SDS011;2801;50.972;7.856;2024-02-04T06:56:17;20.60;;;8.98;;
5555;SDS011;2801;50.972;7.856;2024-02-04T06:58:45;18.70;;;8.93;;
5555;SDS011;2801;50.972;7.856;2024-02-04T07:01:12;14.45;;;8.18;;
5555;SDS011;2801;50.972;7.856;2024-02-04T07:03:39;17.58;;;8.18;;
5555;SDS011;2801;50.972;7.856;2024-02-04T07:06:06;14.68;;;7.80;;
5555;SDS011;2801;50.972;7.856;2024-02-04T07:08:34;13.98;;;7.68;;
5555;SDS011;2801;50.972;7.856;2024-02-04T07:11:01;13.70;;;6.72;;
5555;SDS011;2801;50.972;7.856;2024-02-04T07:13:28;11.68;;;6.72;;
5555;SDS011;2801;50.972;7.856;2024-02-04T07:15:54;12.88;;;6.72;;
5555;SDS011;2801;50.972;7.856;2024-02-04T07:18:22;13.30;;;7.03;;
5555;SDS011;2801;50.972;7.856;2024-02-04T07:20:49;13.05;;;6.63;;
5555;SDS011;2801;50.972;7.856;2024-02-04T07:23:16;14.10;;;6.68;;
5555;SDS011;2801;50.972;7.856;2024-02-04T07:25:43;13.55;;;7.03;;
5555;SDS011;2801;50.972;7.856;2024-02-04T07:28:10;13.35;;;6.82;;
5555;SDS011;2801;50.972;7.856;2024-02-04T07:30:37;12.77;;;6.25;;
5555;SDS011;2801;50.972;7.856;2024-02-04T07:33:04;15.52;;;6.20;;
5555;SDS011;2801;50.972;7.856;2024-02-04T07:35:31;12.85;;;6.13;;
5555;SDS011;2801;50.972;7.856;2024-02-04T07:37:58;14.10;;;6.70;;
5555;SDS011;2801;50.972;7.856;2024-02-04T07:40:26;13.27;;;6.15;;
5555;SDS011;2801;50.972;7.856;2024-02-04T07:42:54;11.95;;;6.97;;
5555;SDS011;2801;50.972;7.856;2024-02-04T07:45:21;11.57;;;6.65;;
5555;SDS011;2801;50.972;7.856;2024-02-04T07:47:48;10.23;;;6.13;;
5555;SDS011;2801;50.972;7.856;2024-02-04T07:50:15;11.50;;;6.70;;
5555;SDS011;2801;50.972;7.856;2024-02-04T07:52:43;16.88;;;8.93;;
5555;SDS011;2801;50.972;7.856;2024-02-04T07:55:10;24.13;;;11.30;;
5555;SDS011;2801;50.972;7.856;2024-02-04T07:57:38;11.35;;;6.13;;
5555;SDS011;2801;50.972;7.856;2024-02-04T08:00:05;8.52;;;5.30;;
5555;SDS011;2801;50.972;7.856;2024-02-04T08:02:36;9.98;;;5.60;;
5555;SDS011;2801;50.972;7.856;2024-02-04T08:05:06;6.78;;;4.38;;
5555;SDS011;2801;50.972;7.856;2024-02-04T08:07:33;6.22;;;4.05;;
5555;SDS011;2801;50.972;7.856;2024-02-04T08:10:00;5.82;;;3.85;;
5555;SDS011;2801;50.972;7.856;2024-02-04T08:12:28;5.65;;;3.63;;
5555;SDS011;2801;50.972;7.856;2024-02-04T08:14:55;4.70;;;3.30;;
5555;SDS011;2801;50.972;7.856;2024-02-04T08:17:22;3.53;;;2.63;;
5555;SDS011;2801;50.972;7.856;2024-02-04T08:19:54;3.60;;;2.50;;
5555;SDS011;2801;50.972;7.856;2024-02-04T08:22:21;4.90;;;2.28;;
5555;SDS011;2801;50.972;7.856;2024-02-04T08:24:48;4.28;;;2.50;;
5555;SDS011;2801;50.972;7.856;2024-02-04T08:27:15;4.03;;;2.75;;
5555;SDS011;2801;50.972;7.856;2024-02-04T08:29:44;4.22;;;2.78;;
5555;SDS011;2801;50.972;7.856;2024-02-04T08:32:11;3.17;;;2.20;;
5555;SDS011;2801;50.972;7.856;2024-02-04T08:34:39;4.30;;;2.70;;
5555;SDS011;2801;50.972;7.856;2024-02-04T08:37:06;5.07;;;3.55;;
5555;SDS011;2801;50.972;7.856;2024-02-04T08:39:34;3.33;;;2.28;;
5555;SDS011;2801;50.972;7.856;2024-02-04T08:42:01;2.88;;;2.30;;
5555;SDS011;2801;50.972;7.856;2024-02-04T08:44:28;2.42;;;1.80;;
5555;SDS011;2801;50.972;7.856;2024-02-04T08:47:05;2.53;;;1.92;;
5555;SDS011;2801;50.972;7.856;2024-02-04T08:49:32;2.60;;;2.00;;
5555;SDS011;2801;50.972;7.856;2024-02-04T08:51:59;2.67;;;2.00;;
5555;SDS011;2801;50.972;7.856;2024-02-04T08:54:26;3.10;;;1.98;;
5555;SDS011;2801;50.972;7.856;2024-02-04T08:56:53;2.95;;;2.03;;
5555;SDS011;2801;50.972;7.856;2024-02-04T08:59:21;2.80;;;2.17;;
5555;SDS011;2801;50.972;7.856;2024-02-04T09:01:50;3.22;;;1.92;;
5555;SDS011;2801;50.972;7.856;2024-02-04T09:04:18;2.42;;;1.95;;
5555;SDS011;2801;50.972;7.856;2024-02-04T09:06:45;2.25;;;1.70;;
5555;SDS011;2801;50.972;7.856;2024-02-04T09:09:13;8.77;;;5.15;;
5555;SDS011;2801;50.972;7.856;2024-02-04T09:11:40;8.15;;;6.07;;
5555;SDS011;2801;50.972;7.856;2024-02-04T09:14:07;3.92;;;3.22;;
5555;SDS011;2801;50.972;7.856;2024-02-04T09:16:37;4.85;;;3.50;;
5555;SDS011;2801;50.972;7.856;2024-02-04T09:19:05;4.43;;;2.53;;
5555;SDS011;2801;50.972;7.856;2024-02-04T09:21:32;3.15;;;1.92;;
5555;SDS011;2801;50.972;7.856;2024-02-04T09:23:59;2.85;;;2.15;;
5555;SDS011;2801;50.972;7.856;2024-02-04T09:26:26;3.40;;;2.50;;
5555;SDS011;2801;50.972;7.856;2024-02-04T09:28:53;3.80;;;2.00;;
5555;SDS011;2801;50.972;7.856;2024-02-04T09:31:21;3.30;;;2.20;;
5555;SDS011;2801;50.972;7.856;2024-02-04T09:33:48;2.20;;;1.63;;
5555;SDS011;2801;50.972;7.856;2024-02-04T09:36:16;3.53;;;2.17;;
5555;SDS011;2801;50.972;7.856;2024-02-04T09:38:43;4.35;;;2.97;;
5555;SDS011;2801;50.972;7.856;2024-02-04T09:41:10;5.00;;;3.10;;
5555;SDS011;2801;50.972;7.856;2024-02-04T09:43:38;5.60;;;3.38;;
5555;SDS011;2801;50.972;7.856;2024-02-04T09:46:06;4.25;;;3.13;;
5555;SDS011;2801;50.972;7.856;2024-02-04T09:48:35;6.85;;;3.92;;
5555;SDS011;2801;50.972;7.856;2024-02-04T09:51:06;5.63;;;3.25;;
5555;SDS011;2801;50.972;7.856;2024-02-04T09:53:35;4.68;;;2.90;;
5555;SDS011;2801;50.972;7.856;2024-02-04T09:56:06;4.60;;;2.80;;
5555;SDS011;2801;50.972;7.856;2024-02-04T09:58:35;3.85;;;2.38;;
5555;SDS011;2801;50.972;7.856;2024-02-04T10:01:04;5.32;;;2.80;;
5555;SDS011;2801;50.972;7.856;2024-02-04T10:03:34;5.43;;;2.42;;
5555;SDS011;2801;50.972;7.856;2024-02-04T10:06:01;2.95;;;2.00;;
5555;SDS011;2801;50.972;7.856;2024-02-04T10:08:29;3.85;;;1.88;;
5555;SDS011;2801;50.972;7.856;2024-02-04T10:10:56;2.50;;;1.50;;
5555;SDS011;2801;50.972;7.856;2024-02-04T10:13:24;2.05;;;1.30;;
5555;SDS011;2801;50.972;7.856;2024-02-04T10:15:51;2.08;;;1.42;;
5555;SDS011;2801;50.972;7.856;2024-02-04T10:18:19;2.72;;;1.60;;
5555;SDS011;2801;50.972;7.856;2024-02-04T10:20:47;2.45;;;0.95;;
5555;SDS011;2801;50.972;7.856;2024-02-04T10:23:15;1.35;;;1.02;;
5555;SDS011;2801;50.972;7.856;2024-02-04T10:25:42;0.90;;;0.80;;
5555;SDS011;2801;50.972;7.856;2024-02-04T10:28:09;0.98;;;0.80;;
5555;SDS011;2801;50.972;7.856;2024-02-04T10:30:38;1.88;;;0.93;;
5555;SDS011;2801;50.972;7.856;2024-02-04T10:33:06;1.00;;;0.85;;
5555;SDS011;2801;50.972;7.856;2024-02-04T10:35:33;2.75;;;1.30;;
5555;SDS011;2801;50.972;7.856;2024-02-04T10:38:00;1.70;;;1.60;;
5555;SDS011;2801;50.972;7.856;2024-02-04T10:40:28;3.60;;;1.95;;
5555;SDS011;2801;50.972;7.856;2024-02-04T10:42:55;2.90;;;2.17;;
5555;SDS011;2801;50.972;7.856;2024-02-04T10:45:29;4.10;;;2.72;;
5555;SDS011;2801;50.972;7.856;2024-02-04T10:48:01;4.22;;;2.80;;
5555;SDS011;2801;50.972;7.856;2024-02-04T10:50:33;5.70;;;3.10;;
5555;SDS011;2801;50.972;7.856;2024-02-04T10:53:04;5.75;;;3.65;;
5555;SDS011;2801;50.972;7.856;2024-02-04T10:55:36;4.28;;;2.70;;
5555;SDS011;2801;50.972;7.856;2024-02-04T10:58:09;6.07;;;3.83;;
5555;SDS011;2801;50.972;7.856;2024-02-04T11:00:40;12.13;;;6.22;;
5555;SDS011;2801;50.972;7.856;2024-02-04T11:03:07;6.93;;;3.40;;
5555;SDS011;2801;50.972;7.856;2024-02-04T11:05:36;5.80;;;3.55;;
5555;SDS011;2801;50.972;7.856;2024-02-04T11:08:05;5.43;;;2.90;;
5555;SDS011;2801;50.972;7.856;2024-02-04T11:10:34;5.22;;;3.08;;
5555;SDS011;2801;50.972;7.856;2024-02-04T11:13:04;4.28;;;3.20;;
5555;SDS011;2801;50.972;7.856;2024-02-04T11:15:36;3.67;;;2.83;;
5555;SDS011;2801;50.972;7.856;2024-02-04T11:18:24;4.78;;;2.95;;
5555;SDS011;2801;50.972;7.856;2024-02-04T11:21:28;4.95;;;3.20;;
5555;SDS011;2801;50.972;7.856;2024-02-04T11:27:46;7.13;;;4.22;;
5555;SDS011;2801;50.972;7.856;2024-02-04T11:30:14;4.05;;;2.60;;
5555;SDS011;2801;50.972;7.856;2024-02-04T11:32:42;4.43;;;2.95;;
5555;SDS011;2801;50.972;7.856;2024-02-04T11:35:09;4.90;;;2.88;;
5555;SDS011;2801;50.972;7.856;2024-02-04T11:37:38;4.57;;;2.55;;
5555;SDS011;2801;50.972;7.856;2024-02-04T11:40:13;4.78;;;2.85;;
5555;SDS011;2801;50.972;7.856;2024-02-04T11:42:45;4.97;;;3.22;;
5555;SDS011;2801;50.972;7.856;2024-02-04T11:45:12;6.15;;;3.63;;
5555;SDS011;2801;50.972;7.856;2024-02-04T11:47:40;5.05;;;3.20;;
5555;SDS011;2801;50.972;7.856;2024-02-04T11:50:08;5.50;;;3.10;;
5555;SDS011;2801;50.972;7.856;2024-02-04T11:52:37;4.75;;;2.78;;
5555;SDS011;2801;50.972;7.856;2024-02-04T11:55:12;4.85;;;2.90;;
5555;SDS011;2801;50.972;7.856;2024-02-04T11:57:42;4.10;;;2.45;;
5555;SDS011;2801;50.972;7.856;2024-02-04T12:00:09;6.32;;;2.50;;
5555;SDS011;2801;50.972;7.856;2024-02-04T12:02:37;4.07;;;2.65;;
5555;SDS011;2801;50.972;7.856;2024-02-04T12:05:05;3.47;;;2.58;;
5555;SDS011;2801;50.972;7.856;2024-02-04T12:07:33;3.78;;;2.53;;
5555;SDS011;2801;50.972;7.856;2024-02-04T12:10:02;4.30;;;2.90;;
5555;SDS011;2801;50.972;7.856;2024-02-04T12:12:31;3.53;;;2.67;;
5555;SDS011;2801;50.972;7.856;2024-02-04T12:14:59;3.17;;;2.50;;
5555;SDS011;2801;50.972;7.856;2024-02-04T12:17:27;2.78;;;2.13;;
5555;SDS011;2801;50.972;7.856;2024-02-04T12:19:55;4.10;;;3.10;;
5555;SDS011;2801;50.972;7.856;2024-02-04T12:22:22;4.07;;;2.85;;
5555;SDS011;2801;50.972;7.856;2024-02-04T12:24:49;6.43;;;3.80;;
5555;SDS011;2801;50.972;7.856;2024-02-04T12:27:16;6.50;;;3.83;;
5555;SDS011;2801;50.972;7.856;2024-02-04T12:29:43;5.63;;;4.03;;
5555;SDS011;2801;50.972;7.856;2024-02-04T12:32:13;6.93;;;3.20;;
5555;SDS011;2801;50.972;7.856;2024-02-04T12:34:40;6.97;;;4.28;;
5555;SDS011;2801;50.972;7.856;2024-02-04T12:37:09;4.50;;;3.42;;
5555;SDS011;2801;50.972;7.856;2024-02-04T12:39:37;6.93;;;4.22;;
5555;SDS011;2801;50.972;7.856;2024-02-04T12:42:04;4.95;;;3.35;;
5555;SDS011;2801;50.972;7.856;2024-02-04T12:44:32;6.57;;;4.18;;
5555;SDS011;2801;50.972;7.856;2024-02-04T12:46:59;4.40;;;2.88;;
5555;SDS011;2801;50.972;7.856;2024-02-04T12:49:26;6.93;;;4.07;;
5555;SDS011;2801;50.972;7.856;2024-02-04T12:52:03;6.25;;;4.10;;
5555;SDS011;2801;50.972;7.856;2024-02-04T12:54:43;4.63;;;3.28;;
5555;SDS011;2801;50.972;7.856;2024-02-04T12:57:21;7.05;;;3.58;;
5555;SDS011;2801;50.972;7.856;2024-02-04T13:00:03;6.95;;;4.10;;
5555;SDS011;2801;50.972;7.856;2024-02-04T13:02:35;6.22;;;3.58;;
5555;SDS011;2801;50.972;7.856;2024-02-04T13:05:02;6.70;;;3.35;;
5555;SDS011;2801;50.972;7.856;2024-02-04T13:07:29;4.80;;;3.28;;
5555;SDS011;2801;50.972;7.856;2024-02-04T13:10:00;5.63;;;3.40;;
5555;SDS011;2801;50.972;7.856;2024-02-04T13:12:27;4.32;;;2.95;;
5555;SDS011;2801;50.972;7.856;2024-02-04T13:14:55;5.40;;;3.10;;
5555;SDS011;2801;50.972;7.856;2024-02-04T13:17:22;3.30;;;2.50;;
5555;SDS011;2801;50.972;7.856;2024-02-04T13:19:49;3.83;;;2.80;;
5555;SDS011;2801;50.972;7.856;2024-02-04T13:22:16;5.28;;;2.85;;
5555;SDS011;2801;50.972;7.856;2024-02-04T13:24:43;3.65;;;2.42;;
5555;SDS011;2801;50.972;7.856;2024-02-04T13:27:10;3.95;;;2.63;;
5555;SDS011;2801;50.972;7.856;2024-02-04T13:29:37;3.83;;;2.45;;
5555;SDS011;2801;50.972;7.856;2024-02-04T13:32:05;4.13;;;2.30;;
5555;SDS011;2801;50.972;7.856;2024-02-04T13:34:32;3.20;;;2.40;;
5555;SDS011;2801;50.972;7.856;2024-02-04T13:37:00;3.67;;;2.60;;
5555;SDS011;2801;50.972;7.856;2024-02-04T13:39:28;4.05;;;2.38;;
5555;SDS011;2801;50.972;7.856;2024-02-04T13:41:55;3.67;;;2.50;;
5555;SDS011;2801;50.972;7.856;2024-02-04T13:44:22;3.10;;;2.38;;
5555;SDS011;2801;50.972;7.856;2024-02-04T13:46:49;4.60;;;2.35;;
5555;SDS011;2801;50.972;7.856;2024-02-04T13:49:16;5.15;;;2.40;;
5555;SDS011;2801;50.972;7.856;2024-02-04T13:51:43;2.88;;;1.90;;
5555;SDS011;2801;50.972;7.856;2024-02-04T13:54:11;2.30;;;1.80;;
5555;SDS011;2801;50.972;7.856;2024-02-04T13:56:44;3.75;;;1.85;;
5555;SDS011;2801;50.972;7.856;2024-02-04T13:59:13;2.17;;;1.77;;
5555;SDS011;2801;50.972;7.856;2024-02-04T14:01:40;2.90;;;1.83;;
5555;SDS011;2801;50.972;7.856;2024-02-04T14:04:07;2.90;;;1.70;;
5555;SDS011;2801;50.972;7.856;2024-02-04T14:06:35;2.53;;;1.92;;
5555;SDS011;2801;50.972;7.856;2024-02-04T14:09:02;3.17;;;2.35;;
5555;SDS011;2801;50.972;7.856;2024-02-04T14:11:29;6.15;;;3.13;;
5555;SDS011;2801;50.972;7.856;2024-02-04T14:13:57;5.43;;;2.83;;
5555;SDS011;2801;50.972;7.856;2024-02-04T14:16:24;4.47;;;2.63;;
5555;SDS011;2801;50.972;7.856;2024-02-04T14:18:52;4.18;;;2.85;;
5555;SDS011;2801;50.972;7.856;2024-02-04T14:21:23;3.75;;;2.65;;
5555;SDS011;2801;50.972;7.856;2024-02-04T14:23:51;3.95;;;2.60;;
5555;SDS011;2801;50.972;7.856;2024-02-04T14:26:18;7.72;;;3.40;;
5555;SDS011;2801;50.972;7.856;2024-02-04T14:28:47;4.03;;;2.70;;
5555;SDS011;2801;50.972;7.856;2024-02-04T14:31:15;3.42;;;1.95;;
5555;SDS011;2801;50.972;7.856;2024-02-04T14:33:42;3.97;;;2.63;;
5555;SDS011;2801;50.972;7.856;2024-02-04T14:36:10;7.43;;;2.83;;
5555;SDS011;2801;50.972;7.856;2024-02-04T14:38:38;4.57;;;2.30;;
5555;SDS011;2801;50.972;7.856;2024-02-04T14:41:05;4.32;;;2.35;;
5555;SDS011;2801;50.972;7.856;2024-02-04T14:43:33;4.50;;;2.33;;
5555;SDS011;2801;50.972;7.856;2024-02-04T14:46:01;3.22;;;1.92;;
5555;SDS011;2801;50.972;7.856;2024-02-04T14:48:28;3.75;;;2.65;;
5555;SDS011;2801;50.972;7.856;2024-02-04T14:50:55;5.20;;;2.25;;
5555;SDS011;2801;50.972;7.856;2024-02-04T14:53:24;5.78;;;2.78;;
5555;SDS011;2801;50.972;7.856;2024-02-04T14:55:52;3.83;;;2.65;;
5555;SDS011;2801;50.972;7.856;2024-02-04T14:58:21;4.95;;;2.88;;
5555;SDS011;2801;50.972;7.856;2024-02-04T15:00:49;5.28;;;3.00;;
5555;SDS011;2801;50.972;7.856;2024-02-04T15:03:16;4.18;;;2.65;;
5555;SDS011;2801;50.972;7.856;2024-02-04T15:05:43;4.82;;;3.10;;
5555;SDS011;2801;50.972;7.856;2024-02-04T15:08:10;5.47;;;3.10;;
5555;SDS011;2801;50.972;7.856;2024-02-04T15:10:38;9.98;;;3.38;;
5555;SDS011;2801;50.972;7.856;2024-02-04T15:13:05;6.38;;;2.95;;
5555;SDS011;2801;50.972;7.856;2024-02-04T15:15:33;4.57;;;3.08;;
5555;SDS011;2801;50.972;7.856;2024-02-04T15:18:00;4.90;;;2.63;;
5555;SDS011;2801;50.972;7.856;2024-02-04T15:20:28;5.28;;;2.90;;
5555;SDS011;2801;50.972;7.856;2024-02-04T15:22:58;6.57;;;3.20;;
5555;SDS011;2801;50.972;7.856;2024-02-04T15:25:27;5.70;;;3.13;;